createdAt,value
2017-03-28T00:00:28.547Z,18.81
2017-03-28T00:01:00.831Z,18.78
2017-03-28T00:01:33.335Z,18.82
2017-03-28T00:02:05.583Z,18.81
2017-03-28T00:02:37.839Z,18.79
2017-03-28T00:03:10.122Z,18.78
2017-03-28T00:03:42.388Z,18.81
2017-03-28T00:04:14.647Z,18.79
2017-03-28T00:04:46.936Z,18.81
2017-03-28T00:05:19.210Z,18.81
2017-03-28T00:05:51.448Z,18.78
2017-03-28T00:06:23.702Z,18.75
2017-03-28T00:06:55.984Z,18.79
2017-03-28T00:07:28.235Z,18.71
2017-03-28T00:08:00.498Z,18.81
2017-03-28T00:08:32.795Z,18.84
2017-03-28T00:09:05.959Z,18.84
2017-03-28T00:09:38.218Z,18.82
2017-03-28T00:10:10.495Z,18.66
2017-03-28T00:10:42.810Z,18.71
2017-03-28T00:11:15.097Z,18.74
2017-03-28T00:11:47.385Z,18.68
2017-03-28T00:12:19.627Z,18.82
2017-03-28T00:12:51.881Z,18.69
2017-03-28T00:13:24.158Z,18.72
2017-03-28T00:13:56.424Z,18.74
2017-03-28T00:14:28.699Z,18.68
2017-03-28T00:15:00.997Z,18.71
2017-03-28T00:15:33.800Z,18.72
2017-03-28T00:16:06.054Z,18.72
2017-03-28T00:16:38.982Z,18.68
2017-03-28T00:17:11.266Z,18.71
2017-03-28T00:17:44.418Z,18.75
2017-03-28T00:18:16.719Z,18.65
2017-03-28T00:18:48.971Z,18.69
2017-03-28T00:19:21.229Z,18.69
2017-03-28T00:19:54.315Z,18.71
2017-03-28T00:20:26.577Z,18.75
2017-03-28T00:20:58.842Z,18.76
2017-03-28T00:21:32.016Z,18.66
2017-03-28T00:22:04.793Z,18.69
2017-03-28T00:22:37.035Z,18.68
2017-03-28T00:23:09.352Z,18.65
2017-03-28T00:23:41.616Z,18.65
2017-03-28T00:24:13.867Z,18.68
2017-03-28T00:24:46.136Z,18.61
2017-03-28T00:25:19.484Z,18.61
2017-03-28T00:25:51.762Z,18.68
2017-03-28T00:26:24.019Z,18.6
2017-03-28T00:26:56.268Z,18.63
2017-03-28T00:27:28.494Z,18.59
2017-03-28T00:28:00.773Z,18.57
2017-03-28T00:28:33.038Z,18.65
2017-03-28T00:29:05.368Z,18.63
2017-03-28T00:29:38.410Z,18.65
2017-03-28T00:30:10.727Z,18.57
2017-03-28T00:30:42.984Z,18.6
2017-03-28T00:31:15.235Z,18.59
2017-03-28T00:31:47.501Z,18.59
2017-03-28T00:32:19.759Z,18.59
2017-03-28T00:32:52.029Z,18.53
2017-03-28T00:33:24.287Z,18.54
2017-03-28T00:33:56.525Z,18.56
2017-03-28T00:34:28.779Z,18.59
2017-03-28T00:35:01.054Z,18.57
2017-03-28T00:35:33.319Z,18.56
2017-03-28T00:36:06.305Z,18.49
2017-03-28T00:36:38.568Z,18.61
2017-03-28T00:37:10.824Z,18.57
2017-03-28T00:37:43.072Z,18.54
2017-03-28T00:38:15.327Z,18.53
2017-03-28T00:38:48.431Z,18.54
2017-03-28T00:39:20.754Z,18.51
2017-03-28T00:39:53.018Z,18.51
2017-03-28T00:40:25.275Z,18.53
2017-03-28T00:40:57.512Z,18.51
2017-03-28T00:41:30.407Z,18.51
2017-03-28T00:42:03.335Z,18.49
2017-03-28T00:42:35.657Z,18.45
2017-03-28T00:43:07.993Z,18.49
2017-03-28T00:43:40.308Z,18.53
2017-03-28T00:44:12.630Z,18.53
2017-03-28T00:44:44.952Z,18.49
2017-03-28T00:45:17.275Z,18.49
2017-03-28T00:45:49.591Z,18.5
2017-03-28T00:46:21.893Z,18.45
2017-03-28T00:46:54.205Z,18.49
2017-03-28T00:47:26.522Z,18.5
2017-03-28T00:47:58.843Z,18.44
2017-03-28T00:48:31.160Z,18.45
2017-03-28T00:49:03.481Z,18.44
2017-03-28T00:49:35.797Z,18.44
2017-03-28T00:50:08.119Z,18.47
2017-03-28T00:50:40.426Z,18.47
2017-03-28T00:51:12.731Z,18.51
2017-03-28T00:51:45.053Z,18.44
2017-03-28T00:52:17.382Z,18.41
2017-03-28T00:52:49.642Z,18.49
2017-03-28T00:53:22.884Z,18.42
2017-03-28T00:53:55.156Z,18.51
2017-03-28T00:54:27.984Z,18.45
2017-03-28T00:55:00.245Z,18.47
2017-03-28T00:55:33.445Z,18.5
2017-03-28T00:56:06.368Z,18.44
2017-03-28T00:56:38.624Z,18.45
2017-03-28T00:57:10.871Z,18.42
2017-03-28T00:57:43.143Z,18.44
2017-03-28T00:58:15.868Z,18.44
2017-03-28T00:58:48.096Z,18.49
2017-03-28T00:59:20.342Z,18.41
2017-03-28T00:59:52.618Z,18.45
2017-03-28T01:00:24.863Z,18.5
2017-03-28T01:00:57.107Z,18.41
2017-03-28T01:01:29.368Z,18.44
2017-03-28T01:02:01.622Z,18.5
2017-03-28T01:02:33.957Z,18.45
2017-03-28T01:03:06.279Z,18.44
2017-03-28T01:03:38.618Z,18.42
2017-03-28T01:04:10.930Z,18.39
2017-03-28T01:04:43.253Z,18.45
2017-03-28T01:05:15.569Z,18.44
2017-03-28T01:05:47.904Z,18.44
2017-03-28T01:06:20.204Z,18.45
2017-03-28T01:06:52.523Z,18.47
2017-03-28T01:07:24.835Z,18.45
2017-03-28T01:07:57.156Z,18.41
2017-03-28T01:08:29.476Z,18.53
2017-03-28T01:09:01.797Z,18.51
2017-03-28T01:09:34.125Z,18.49
2017-03-28T01:10:06.437Z,18.47
2017-03-28T01:10:38.741Z,18.49
2017-03-28T01:11:11.057Z,18.45
2017-03-28T01:11:43.371Z,18.51
2017-03-28T01:12:15.680Z,18.5
2017-03-28T01:12:47.991Z,18.49
2017-03-28T01:13:20.308Z,18.47
2017-03-28T01:13:52.618Z,18.49
2017-03-28T01:14:24.934Z,18.51
2017-03-28T01:14:57.255Z,18.45
2017-03-28T01:15:29.582Z,18.56
2017-03-28T01:16:01.901Z,18.41
2017-03-28T01:16:34.221Z,18.5
2017-03-28T01:17:06.538Z,18.57
2017-03-28T01:17:38.858Z,18.5
2017-03-28T01:18:11.202Z,18.53
2017-03-28T01:18:43.534Z,18.5
2017-03-28T01:19:15.852Z,18.54
2017-03-28T01:19:48.150Z,18.49
2017-03-28T01:20:20.498Z,18.53
2017-03-28T01:20:52.800Z,18.51
2017-03-28T01:21:25.124Z,18.51
2017-03-28T01:21:57.439Z,18.49
2017-03-28T01:22:29.754Z,18.54
2017-03-28T01:23:02.079Z,18.51
2017-03-28T01:23:34.390Z,18.54
2017-03-28T01:24:06.707Z,18.54
2017-03-28T01:24:39.039Z,18.54
2017-03-28T01:25:11.361Z,18.54
2017-03-28T01:25:43.684Z,18.5
2017-03-28T01:26:16.007Z,18.54
2017-03-28T01:26:48.324Z,18.49
2017-03-28T01:27:20.631Z,18.49
2017-03-28T01:27:52.931Z,18.53
2017-03-28T01:28:25.265Z,18.6
2017-03-28T01:28:57.594Z,18.6
2017-03-28T01:29:29.908Z,18.54
2017-03-28T01:30:02.234Z,18.47
2017-03-28T01:30:34.560Z,18.57
2017-03-28T01:31:06.887Z,18.53
2017-03-28T01:31:39.188Z,18.57
2017-03-28T01:32:11.509Z,18.54
2017-03-28T01:32:43.791Z,18.56
2017-03-28T01:33:16.538Z,18.6
2017-03-28T01:33:48.808Z,18.51
2017-03-28T01:34:21.056Z,18.61
2017-03-28T01:34:53.947Z,18.6
2017-03-28T01:35:26.206Z,18.53
2017-03-28T01:35:58.445Z,18.51
2017-03-28T01:36:30.682Z,18.53
2017-03-28T01:37:03.831Z,18.65
2017-03-28T01:37:36.069Z,18.59
2017-03-28T01:38:09.404Z,18.53
2017-03-28T01:38:41.677Z,18.57
2017-03-28T01:39:13.924Z,18.51
2017-03-28T01:39:46.194Z,18.56
2017-03-28T01:40:18.477Z,18.51
2017-03-28T01:40:50.730Z,18.53
2017-03-28T01:41:23.099Z,18.57
2017-03-28T01:41:55.346Z,18.57
2017-03-28T01:42:27.607Z,18.65
2017-03-28T01:42:59.842Z,18.56
2017-03-28T01:43:32.085Z,18.6
2017-03-28T01:44:04.849Z,18.6
2017-03-28T01:44:37.156Z,18.53
2017-03-28T01:45:09.413Z,18.56
2017-03-28T01:45:41.682Z,18.54
2017-03-28T01:46:13.941Z,18.59
2017-03-28T01:46:46.287Z,18.51
2017-03-28T01:47:18.530Z,18.53
2017-03-28T01:47:50.760Z,18.53
2017-03-28T01:48:23.034Z,18.5
2017-03-28T01:48:55.314Z,18.56
2017-03-28T01:49:27.591Z,18.53
2017-03-28T01:49:59.847Z,18.51
2017-03-28T01:50:32.094Z,18.59
2017-03-28T01:51:04.350Z,18.54
2017-03-28T01:51:36.610Z,18.54
2017-03-28T01:52:08.855Z,18.53
2017-03-28T01:52:41.843Z,18.56
2017-03-28T01:53:14.100Z,18.59
2017-03-28T01:53:46.368Z,18.56
2017-03-28T01:54:18.609Z,18.57
2017-03-28T01:54:50.862Z,18.53
2017-03-28T01:55:23.203Z,18.54
2017-03-28T01:55:55.464Z,18.5
2017-03-28T01:56:27.724Z,18.54
2017-03-28T01:56:59.968Z,18.53
2017-03-28T01:57:32.232Z,18.49
2017-03-28T01:58:05.049Z,18.61
2017-03-28T01:58:37.327Z,18.57
2017-03-28T01:59:09.618Z,18.54
2017-03-28T01:59:41.859Z,18.53
2017-03-28T02:00:14.137Z,18.54
2017-03-28T02:00:47.031Z,18.53
2017-03-28T02:01:19.308Z,18.53
2017-03-28T02:01:51.550Z,18.5
2017-03-28T02:02:23.793Z,18.5
2017-03-28T02:02:56.046Z,18.51
2017-03-28T02:03:28.434Z,18.5
2017-03-28T02:04:00.716Z,18.49
2017-03-28T02:04:32.984Z,18.51
2017-03-28T02:05:05.247Z,18.5
2017-03-28T02:05:37.518Z,18.47
2017-03-28T02:06:09.756Z,18.51
2017-03-28T02:06:42.025Z,18.5
2017-03-28T02:07:14.272Z,18.5
2017-03-28T02:07:46.535Z,18.51
2017-03-28T02:08:18.788Z,18.5
2017-03-28T02:08:51.035Z,18.49
2017-03-28T02:09:23.301Z,18.49
2017-03-28T02:09:56.406Z,18.51
2017-03-28T02:10:29.535Z,18.42
2017-03-28T02:11:02.427Z,18.45
2017-03-28T02:11:34.678Z,18.51
2017-03-28T02:12:06.938Z,18.45
2017-03-28T02:12:39.198Z,18.42
2017-03-28T02:13:11.459Z,18.41
2017-03-28T02:13:43.843Z,18.39
2017-03-28T02:14:16.108Z,18.38
2017-03-28T02:14:48.355Z,18.44
2017-03-28T02:15:20.626Z,18.41
2017-03-28T02:15:52.924Z,18.39
2017-03-28T02:16:25.996Z,18.39
2017-03-28T02:16:59.569Z,18.49
2017-03-28T02:17:31.819Z,18.42
2017-03-28T02:18:04.059Z,18.45
2017-03-28T02:18:37.416Z,18.32
2017-03-28T02:19:09.692Z,18.35
2017-03-28T02:19:41.975Z,18.36
2017-03-28T02:20:14.239Z,18.38
2017-03-28T02:20:46.521Z,18.38
2017-03-28T02:21:18.776Z,18.38
2017-03-28T02:21:51.043Z,18.38
2017-03-28T02:22:23.364Z,18.41
2017-03-28T02:22:55.669Z,18.44
2017-03-28T02:23:27.990Z,18.36
2017-03-28T02:24:00.315Z,18.45
2017-03-28T02:24:32.637Z,18.38
2017-03-28T02:25:04.944Z,18.39
2017-03-28T02:25:37.255Z,18.35
2017-03-28T02:26:09.550Z,18.39
2017-03-28T02:26:41.866Z,18.44
2017-03-28T02:27:14.183Z,18.39
2017-03-28T02:27:46.494Z,18.35
2017-03-28T02:28:18.819Z,18.36
2017-03-28T02:28:51.145Z,18.39
2017-03-28T02:29:23.493Z,18.32
2017-03-28T02:29:55.807Z,18.39
2017-03-28T02:30:28.134Z,18.41
2017-03-28T02:31:00.459Z,18.32
2017-03-28T02:31:32.798Z,18.35
2017-03-28T02:32:05.106Z,18.32
2017-03-28T02:32:38.014Z,18.35
2017-03-28T02:33:10.350Z,18.27
2017-03-28T02:33:42.603Z,18.31
2017-03-28T02:34:14.839Z,18.34
2017-03-28T02:34:47.089Z,18.34
2017-03-28T02:35:20.011Z,18.27
2017-03-28T02:35:52.257Z,18.32
2017-03-28T02:36:24.495Z,18.34
2017-03-28T02:36:56.741Z,18.41
2017-03-28T02:37:28.999Z,18.41
2017-03-28T02:38:01.251Z,18.41
2017-03-28T02:38:33.627Z,18.34
2017-03-28T02:39:05.880Z,18.31
2017-03-28T02:39:38.151Z,18.38
2017-03-28T02:40:10.413Z,18.39
2017-03-28T02:40:42.753Z,18.35
2017-03-28T02:41:16.012Z,18.32
2017-03-28T02:41:48.293Z,18.35
2017-03-28T02:42:20.539Z,18.21
2017-03-28T02:42:52.798Z,18.36
2017-03-28T02:43:25.050Z,18.35
2017-03-28T02:43:57.317Z,18.39
2017-03-28T02:44:29.587Z,18.31
2017-03-28T02:45:01.839Z,18.34
2017-03-28T02:45:34.112Z,18.27
2017-03-28T02:46:06.364Z,18.29
2017-03-28T02:46:38.626Z,18.29
2017-03-28T02:47:11.480Z,18.26
2017-03-28T02:47:43.758Z,18.34
2017-03-28T02:48:16.010Z,18.27
2017-03-28T02:48:49.069Z,18.2
2017-03-28T02:49:21.324Z,18.16
2017-03-28T02:49:53.588Z,18.29
2017-03-28T02:50:25.876Z,18.32
2017-03-28T02:50:58.905Z,18.19
2017-03-28T02:51:31.171Z,18.29
2017-03-28T02:52:03.422Z,18.21
2017-03-28T02:52:35.730Z,18.17
2017-03-28T02:53:08.038Z,18.21
2017-03-28T02:53:40.358Z,18.23
2017-03-28T02:54:12.653Z,18.14
2017-03-28T02:54:44.956Z,18.16
2017-03-28T02:55:17.262Z,18.19
2017-03-28T02:55:49.573Z,18.19
2017-03-28T02:56:21.907Z,18.19
2017-03-28T02:56:54.211Z,18.17
2017-03-28T02:57:26.538Z,18.2
2017-03-28T02:57:58.859Z,18.17
2017-03-28T02:58:31.166Z,18.19
2017-03-28T02:59:03.478Z,18.2
2017-03-28T02:59:35.793Z,18.19
2017-03-28T03:00:08.096Z,18.24
2017-03-28T03:00:40.413Z,18.17
2017-03-28T03:01:12.729Z,18.24
2017-03-28T03:01:45.025Z,18.2
2017-03-28T03:02:17.332Z,18.14
2017-03-28T03:02:49.592Z,18.1
2017-03-28T03:03:21.863Z,18.19
2017-03-28T03:03:54.125Z,18.17
2017-03-28T03:04:26.392Z,18.23
2017-03-28T03:04:58.677Z,18.19
2017-03-28T03:05:31.050Z,18.2
2017-03-28T03:06:03.285Z,18.14
2017-03-28T03:06:35.557Z,18.17
2017-03-28T03:07:07.813Z,18.17
2017-03-28T03:07:40.062Z,18.19
2017-03-28T03:08:12.347Z,18.16
2017-03-28T03:08:45.371Z,18.19
2017-03-28T03:09:17.653Z,18.1
2017-03-28T03:09:51.077Z,18.08
2017-03-28T03:10:23.321Z,18.05
2017-03-28T03:10:55.567Z,18.03
2017-03-28T03:11:27.851Z,18.13
2017-03-28T03:12:00.107Z,18.06
2017-03-28T03:12:32.435Z,18.1
2017-03-28T03:13:04.764Z,18.02
2017-03-28T03:13:37.083Z,18.14
2017-03-28T03:14:09.382Z,18.03
2017-03-28T03:14:41.707Z,18.05
2017-03-28T03:15:14.025Z,18.05
2017-03-28T03:15:46.321Z,18.1
2017-03-28T03:16:18.639Z,18.05
2017-03-28T03:16:50.944Z,18.05
2017-03-28T03:17:23.257Z,18.03
2017-03-28T03:17:55.577Z,18.08
2017-03-28T03:18:27.893Z,18.05
2017-03-28T03:19:00.235Z,18.01
2017-03-28T03:19:32.539Z,18.05
2017-03-28T03:20:04.842Z,18.01
2017-03-28T03:20:37.161Z,18.06
2017-03-28T03:21:09.485Z,18.05
2017-03-28T03:21:41.807Z,18.02
2017-03-28T03:22:14.115Z,18.06
2017-03-28T03:22:46.429Z,18.02
2017-03-28T03:23:18.732Z,18.02
2017-03-28T03:23:51.038Z,18.1
2017-03-28T03:24:23.347Z,18.01
2017-03-28T03:24:55.685Z,18.08
2017-03-28T03:25:28.029Z,18.01
2017-03-28T03:26:00.340Z,18.05
2017-03-28T03:26:32.650Z,18.1
2017-03-28T03:27:04.963Z,18.02
2017-03-28T03:27:37.274Z,18.02
2017-03-28T03:28:09.583Z,17.96
2017-03-28T03:28:41.909Z,18.02
2017-03-28T03:29:14.250Z,18.02
2017-03-28T03:29:46.568Z,17.99
2017-03-28T03:30:18.880Z,18.03
2017-03-28T03:30:51.188Z,18.05
2017-03-28T03:31:23.510Z,18.05
2017-03-28T03:31:55.817Z,18.03
2017-03-28T03:32:28.060Z,18.03
2017-03-28T03:33:00.951Z,17.95
2017-03-28T03:33:33.199Z,18.03
2017-03-28T03:34:05.477Z,17.98
2017-03-28T03:34:37.750Z,18.01
2017-03-28T03:35:09.993Z,18.02
2017-03-28T03:35:42.339Z,18.03
2017-03-28T03:36:14.597Z,17.99
2017-03-28T03:36:46.859Z,18.01
2017-03-28T03:37:19.106Z,18.02
2017-03-28T03:37:51.356Z,18.02
2017-03-28T03:38:24.478Z,18.02
2017-03-28T03:38:56.730Z,17.98
2017-03-28T03:39:29.004Z,18.02
2017-03-28T03:40:01.258Z,17.99
2017-03-28T03:40:33.495Z,18.02
2017-03-28T03:41:05.739Z,17.99
2017-03-28T03:41:37.990Z,18.05
2017-03-28T03:42:10.263Z,18.02
2017-03-28T03:42:43.095Z,18.02
2017-03-28T03:43:15.366Z,17.99
2017-03-28T03:43:47.610Z,18.02
2017-03-28T03:44:20.580Z,17.99
2017-03-28T03:44:52.876Z,17.92
2017-03-28T03:45:25.141Z,18.08
2017-03-28T03:45:57.397Z,18.01
2017-03-28T03:46:29.649Z,18.05
2017-03-28T03:47:01.903Z,18.05
2017-03-28T03:47:34.149Z,18.05
2017-03-28T03:48:07.006Z,18.11
2017-03-28T03:48:39.896Z,17.99
2017-03-28T03:49:12.169Z,18.06
2017-03-28T03:49:44.406Z,18.16
2017-03-28T03:50:16.665Z,18.05
2017-03-28T03:50:48.923Z,18.06
2017-03-28T03:51:21.184Z,18.08
2017-03-28T03:51:53.456Z,18.14
2017-03-28T03:52:25.757Z,18.02
2017-03-28T03:52:58.069Z,18.08
2017-03-28T03:53:30.400Z,18.08
2017-03-28T03:54:02.718Z,18.06
2017-03-28T03:54:35.036Z,18.08
2017-03-28T03:55:07.347Z,18.11
2017-03-28T03:55:39.671Z,18.03
2017-03-28T03:56:11.964Z,18.13
2017-03-28T03:56:44.278Z,18.06
2017-03-28T03:57:16.596Z,18.02
2017-03-28T03:57:48.902Z,18.11
2017-03-28T03:58:21.221Z,18.06
2017-03-28T03:58:53.544Z,18.16
2017-03-28T03:59:25.866Z,18.02
2017-03-28T03:59:58.181Z,18.11
2017-03-28T04:00:30.534Z,18.06
2017-03-28T04:01:02.843Z,18.16
2017-03-28T04:01:35.153Z,18.11
2017-03-28T04:02:07.464Z,18.14
2017-03-28T04:02:39.781Z,18.16
2017-03-28T04:03:12.103Z,18.14
2017-03-28T04:03:44.403Z,18.03
2017-03-28T04:04:16.734Z,18.05
2017-03-28T04:04:49.050Z,18.03
2017-03-28T04:05:21.359Z,18.03
2017-03-28T04:05:53.668Z,18.16
2017-03-28T04:06:25.976Z,18.03
2017-03-28T04:06:58.288Z,18.16
2017-03-28T04:07:30.630Z,18.06
2017-03-28T04:08:02.944Z,18.05
2017-03-28T04:08:35.289Z,18.1
2017-03-28T04:09:07.607Z,18.17
2017-03-28T04:09:39.921Z,18.06
2017-03-28T04:10:12.240Z,18.03
2017-03-28T04:10:44.557Z,18.19
2017-03-28T04:11:16.866Z,18.14
2017-03-28T04:11:49.196Z,18.13
2017-03-28T04:12:21.928Z,18.05
2017-03-28T04:12:54.223Z,18.06
2017-03-28T04:13:26.485Z,18.06
2017-03-28T04:13:58.733Z,18.1
2017-03-28T04:14:31.050Z,18.03
2017-03-28T04:15:03.334Z,18.14
2017-03-28T04:15:35.605Z,18.13
2017-03-28T04:16:07.851Z,18.11
2017-03-28T04:16:40.097Z,18.17
2017-03-28T04:17:12.343Z,18.08
2017-03-28T04:17:44.605Z,18.08
2017-03-28T04:18:16.865Z,18.1
2017-03-28T04:18:49.122Z,18.1
2017-03-28T04:19:21.373Z,18.19
2017-03-28T04:19:53.697Z,18.06
2017-03-28T04:20:26.434Z,18.08
2017-03-28T04:20:58.673Z,18.17
2017-03-28T04:21:31.576Z,18.08
2017-03-28T04:22:03.851Z,18.01
2017-03-28T04:22:36.161Z,18.21
2017-03-28T04:23:08.488Z,18.16
2017-03-28T04:23:40.788Z,18.05
2017-03-28T04:24:13.101Z,18.05
2017-03-28T04:24:45.433Z,18.14
2017-03-28T04:25:17.739Z,18.16
2017-03-28T04:25:50.058Z,18.13
2017-03-28T04:26:22.377Z,18.06
2017-03-28T04:26:54.706Z,18.19
2017-03-28T04:27:27.019Z,18.17
2017-03-28T04:27:59.321Z,18.03
2017-03-28T04:28:31.666Z,18.16
2017-03-28T04:29:03.989Z,18.2
2017-03-28T04:29:36.302Z,18.02
2017-03-28T04:30:08.625Z,18.05
2017-03-28T04:30:40.932Z,18.01
2017-03-28T04:31:13.243Z,18.08
2017-03-28T04:31:45.562Z,18.19
2017-03-28T04:32:17.890Z,18.08
2017-03-28T04:32:50.185Z,18.06
2017-03-28T04:33:22.516Z,18.06
2017-03-28T04:33:54.846Z,18.06
2017-03-28T04:34:27.162Z,18.02
2017-03-28T04:34:59.497Z,18.16
2017-03-28T04:35:31.815Z,18.05
2017-03-28T04:36:04.123Z,18.05
2017-03-28T04:36:36.419Z,18.05
2017-03-28T04:37:08.735Z,18.17
2017-03-28T04:37:41.043Z,18.05
2017-03-28T04:38:13.355Z,18.08
2017-03-28T04:38:45.676Z,18.06
2017-03-28T04:39:17.969Z,18.08
2017-03-28T04:39:50.284Z,18.05
2017-03-28T04:40:22.620Z,18.06
2017-03-28T04:40:54.929Z,18.1
2017-03-28T04:41:27.249Z,18.05
2017-03-28T04:41:59.554Z,18.1
2017-03-28T04:42:31.840Z,18.05
2017-03-28T04:43:04.091Z,18.11
2017-03-28T04:43:36.343Z,18.02
2017-03-28T04:44:08.608Z,18.08
2017-03-28T04:44:40.840Z,18.02
2017-03-28T04:45:13.145Z,18.03
2017-03-28T04:45:45.406Z,17.99
2017-03-28T04:46:17.655Z,17.96
2017-03-28T04:46:49.922Z,18.05
2017-03-28T04:47:22.165Z,18.1
2017-03-28T04:47:54.423Z,17.99
2017-03-28T04:48:26.709Z,17.99
2017-03-28T04:48:58.980Z,17.96
2017-03-28T04:49:32.115Z,18.05
2017-03-28T04:50:04.360Z,18.11
2017-03-28T04:50:36.629Z,17.99
2017-03-28T04:51:08.872Z,18.05
2017-03-28T04:51:41.108Z,17.96
2017-03-28T04:52:13.359Z,18.01
2017-03-28T04:52:45.647Z,17.98
2017-03-28T04:53:17.976Z,17.99
2017-03-28T04:53:50.299Z,17.95
2017-03-28T04:54:22.624Z,17.98
2017-03-28T04:54:54.939Z,17.95
2017-03-28T04:55:27.264Z,18.05
2017-03-28T04:55:59.569Z,17.96
2017-03-28T04:56:31.876Z,18.03
2017-03-28T04:57:04.180Z,18.06
2017-03-28T04:57:36.504Z,17.9
2017-03-28T04:58:08.828Z,17.98
2017-03-28T04:58:41.155Z,17.92
2017-03-28T04:59:13.499Z,17.99
2017-03-28T04:59:45.831Z,17.92
2017-03-28T05:00:18.138Z,17.98
2017-03-28T05:00:50.464Z,17.96
2017-03-28T05:01:22.773Z,17.92
2017-03-28T05:01:55.087Z,17.9
2017-03-28T05:02:27.411Z,17.99
2017-03-28T05:02:59.744Z,17.99
2017-03-28T05:03:32.049Z,17.88
2017-03-28T05:04:04.362Z,17.96
2017-03-28T05:04:36.677Z,17.9
2017-03-28T05:05:09.007Z,17.95
2017-03-28T05:05:41.308Z,17.96
2017-03-28T05:06:13.627Z,17.95
2017-03-28T05:06:45.948Z,17.94
2017-03-28T05:07:18.276Z,17.98
2017-03-28T05:07:50.584Z,17.95
2017-03-28T05:08:22.903Z,17.98
2017-03-28T05:08:55.229Z,17.92
2017-03-28T05:09:27.578Z,17.94
2017-03-28T05:09:59.896Z,17.96
2017-03-28T05:10:32.197Z,17.9
2017-03-28T05:11:04.520Z,17.95
2017-03-28T05:11:36.850Z,17.92
2017-03-28T05:12:09.162Z,17.94
2017-03-28T05:12:41.417Z,17.94
2017-03-28T05:13:13.676Z,17.9
2017-03-28T05:13:45.953Z,17.9
2017-03-28T05:14:18.217Z,17.96
2017-03-28T05:14:50.494Z,17.88
2017-03-28T05:15:22.758Z,17.9
2017-03-28T05:15:55.581Z,17.87
2017-03-28T05:16:27.844Z,17.96
2017-03-28T05:17:00.119Z,17.95
2017-03-28T05:17:32.379Z,17.9
2017-03-28T05:18:04.643Z,17.92
2017-03-28T05:18:37.579Z,17.9
2017-03-28T05:19:09.832Z,17.94
2017-03-28T05:19:42.072Z,17.88
2017-03-28T05:20:14.328Z,17.92
2017-03-28T05:20:46.625Z,17.88
2017-03-28T05:21:18.876Z,17.86
2017-03-28T05:21:51.116Z,17.84
2017-03-28T05:22:23.444Z,17.9
2017-03-28T05:22:55.759Z,17.87
2017-03-28T05:23:28.110Z,17.88
2017-03-28T05:24:00.439Z,17.9
2017-03-28T05:24:32.739Z,17.92
2017-03-28T05:25:05.077Z,17.9
2017-03-28T05:25:37.386Z,17.86
2017-03-28T05:26:09.705Z,17.88
2017-03-28T05:26:42.029Z,17.95
2017-03-28T05:27:14.347Z,17.86
2017-03-28T05:27:46.692Z,17.83
2017-03-28T05:28:19.013Z,17.87
2017-03-28T05:28:51.316Z,17.88
2017-03-28T05:29:23.621Z,17.88
2017-03-28T05:29:55.933Z,17.86
2017-03-28T05:30:28.258Z,17.9
2017-03-28T05:31:00.568Z,17.87
2017-03-28T05:31:32.881Z,17.88
2017-03-28T05:32:05.213Z,17.83
2017-03-28T05:32:37.481Z,17.98
2017-03-28T05:33:09.764Z,17.92
2017-03-28T05:33:42.026Z,17.94
2017-03-28T05:34:14.929Z,17.94
2017-03-28T05:34:47.190Z,17.9
2017-03-28T05:35:19.449Z,17.92
2017-03-28T05:35:51.716Z,17.92
2017-03-28T05:36:23.972Z,17.98
2017-03-28T05:36:56.235Z,17.98
2017-03-28T05:37:28.522Z,18.01
2017-03-28T05:38:00.794Z,17.96
2017-03-28T05:38:33.117Z,18.01
2017-03-28T05:39:05.379Z,17.98
2017-03-28T05:39:37.644Z,17.99
2017-03-28T05:40:16.244Z,18.08
2017-03-28T05:41:39.505Z,18.06
2017-03-28T05:42:41.096Z,18.17
2017-03-28T05:43:16.457Z,18.17
2017-03-28T05:43:51.824Z,18.23
2017-03-28T05:44:24.780Z,18.21
2017-03-28T05:45:09.247Z,18.19
2017-03-28T05:45:41.532Z,18.23
2017-03-28T05:46:13.829Z,18.27
2017-03-28T05:46:48.105Z,18.27
2017-03-28T05:47:21.638Z,18.32
2017-03-28T05:47:55.129Z,18.41
2017-03-28T05:48:41.028Z,18.34
2017-03-28T05:49:16.258Z,18.27
2017-03-28T05:49:49.173Z,18.38
2017-03-28T05:50:22.140Z,18.36
2017-03-28T05:50:57.360Z,18.39
2017-03-28T05:51:34.537Z,18.39
2017-03-28T05:52:12.184Z,18.45
2017-03-28T05:52:49.141Z,18.47
2017-03-28T05:53:22.027Z,18.5
2017-03-28T05:53:55.930Z,18.51
2017-03-28T05:55:55.014Z,18.6
2017-03-28T05:56:27.584Z,18.68
2017-03-28T05:56:59.910Z,18.6
2017-03-28T05:57:32.231Z,18.61
2017-03-28T05:58:04.544Z,18.63
2017-03-28T05:58:36.847Z,18.69
2017-03-28T05:59:09.156Z,18.69
2017-03-28T05:59:41.480Z,18.76
2017-03-28T06:00:13.800Z,18.72
2017-03-28T06:00:46.105Z,18.63
2017-03-28T06:01:18.417Z,18.75
2017-03-28T06:01:50.723Z,18.87
2017-03-28T06:02:23.047Z,18.81
2017-03-28T06:02:55.359Z,18.89
2017-03-28T06:03:27.668Z,18.79
2017-03-28T06:03:59.999Z,18.87
2017-03-28T06:04:32.319Z,18.93
2017-03-28T06:05:04.633Z,18.97
2017-03-28T06:05:36.965Z,18.91
2017-03-28T06:06:09.280Z,18.96
2017-03-28T06:06:41.610Z,18.96
2017-03-28T06:07:13.935Z,18.97
2017-03-28T06:07:46.244Z,19.05
2017-03-28T06:08:18.785Z,19.12
2017-03-28T06:08:51.484Z,19.16
2017-03-28T06:09:23.836Z,19.12
2017-03-28T06:09:57.736Z,19.05
2017-03-28T06:10:30.059Z,19.17
2017-03-28T06:11:02.392Z,19.13
2017-03-28T06:11:34.704Z,19.2
2017-03-28T06:12:07.002Z,19.13
2017-03-28T06:12:40.150Z,19.25
2017-03-28T06:13:13.412Z,19.27
2017-03-28T06:13:45.764Z,19.31
2017-03-28T06:14:18.105Z,19.25
2017-03-28T06:14:50.485Z,19.32
2017-03-28T06:15:22.810Z,19.31
2017-03-28T06:15:55.136Z,19.34
2017-03-28T06:16:27.440Z,19.31
2017-03-28T06:16:59.880Z,19.45
2017-03-28T06:17:32.177Z,19.37
2017-03-28T06:18:04.596Z,19.45
2017-03-28T06:18:37.099Z,19.47
2017-03-28T06:19:09.403Z,19.42
2017-03-28T06:19:41.935Z,19.46
2017-03-28T06:20:14.395Z,19.56
2017-03-28T06:22:06.188Z,19.52
2017-03-28T06:22:38.587Z,19.47
2017-03-28T06:23:11.069Z,19.56
2017-03-28T06:23:43.387Z,19.55
2017-03-28T06:25:35.238Z,19.6
2017-03-28T06:26:07.627Z,19.64
2017-03-28T06:26:39.996Z,19.63
2017-03-28T06:27:12.304Z,19.67
2017-03-28T06:27:44.610Z,19.68
2017-03-28T06:28:16.934Z,19.75
2017-03-28T06:28:49.260Z,19.75
2017-03-28T06:29:21.639Z,19.71
2017-03-28T06:31:13.265Z,19.75
2017-03-28T06:31:45.562Z,19.8
2017-03-28T06:32:17.902Z,19.8
2017-03-28T06:32:52.075Z,19.87
2017-03-28T06:33:25.053Z,19.75
2017-03-28T06:33:58.157Z,19.78
2017-03-28T06:34:30.761Z,19.83
2017-03-28T06:35:05.351Z,19.89
2017-03-28T06:35:37.632Z,19.87
2017-03-28T06:36:12.163Z,19.89
2017-03-28T06:36:44.457Z,19.92
2017-03-28T06:37:16.781Z,19.9
2017-03-28T06:37:49.060Z,19.97
2017-03-28T06:38:21.327Z,19.98
2017-03-28T06:38:53.605Z,19.89
2017-03-28T06:39:25.862Z,19.97
2017-03-28T06:39:58.119Z,20.05
2017-03-28T06:40:31.707Z,20
2017-03-28T06:41:03.999Z,20
2017-03-28T06:41:37.331Z,20.08
2017-03-28T06:42:09.591Z,20.05
2017-03-28T06:42:41.902Z,20.05
2017-03-28T06:43:14.340Z,20.11
2017-03-28T06:43:46.620Z,20.07
2017-03-28T06:44:18.875Z,20.07
2017-03-28T06:44:51.149Z,20.22
2017-03-28T06:45:23.417Z,20.1
2017-03-28T06:45:57.162Z,20.16
2017-03-28T06:46:30.156Z,20.18
2017-03-28T06:47:02.410Z,20.19
2017-03-28T06:47:34.729Z,20.16
2017-03-28T06:48:07.720Z,20.2
2017-03-28T06:48:40.041Z,20.19
2017-03-28T06:49:12.308Z,20.15
2017-03-28T06:49:44.593Z,20.27
2017-03-28T06:50:16.892Z,20.26
2017-03-28T06:50:49.133Z,20.23
2017-03-28T06:51:22.122Z,20.27
2017-03-28T06:51:54.392Z,20.26
2017-03-28T06:52:26.742Z,20.25
2017-03-28T06:52:59.090Z,20.34
2017-03-28T06:53:31.413Z,20.37
2017-03-28T06:54:03.710Z,20.38
2017-03-28T06:54:36.037Z,20.38
2017-03-28T06:55:08.353Z,20.37
2017-03-28T06:55:40.667Z,20.41
2017-03-28T06:56:12.960Z,20.4
2017-03-28T06:56:45.264Z,20.37
2017-03-28T06:57:17.563Z,20.38
2017-03-28T06:57:49.871Z,20.38
2017-03-28T06:58:22.189Z,20.41
2017-03-28T06:58:54.527Z,20.44
2017-03-28T06:59:26.831Z,20.49
2017-03-28T06:59:59.164Z,20.54
2017-03-28T07:00:31.479Z,20.57
2017-03-28T07:01:03.803Z,20.54
2017-03-28T07:01:36.115Z,20.54
2017-03-28T07:02:08.433Z,20.57
2017-03-28T07:02:40.754Z,20.57
2017-03-28T07:03:13.058Z,20.58
2017-03-28T07:03:45.375Z,20.72
2017-03-28T07:04:17.713Z,20.63
2017-03-28T07:04:50.043Z,20.66
2017-03-28T07:05:22.372Z,20.66
2017-03-28T07:05:54.695Z,20.68
2017-03-28T07:06:26.995Z,20.75